sensor_id;sensor_type;location;lat;lon;timestamp;pressure;altitude;pressure_sealevel;temperature;humidity
29461;BME280;16428;47.836;35.106;2023-01-31T00:02:27;100782.25;;;0.27;100.00
29461;BME280;16428;47.836;35.106;2023-01-31T00:04:55;100772.72;;;0.37;100.00
29461;BME280;16428;47.836;35.106;2023-01-31T00:07:25;100778.63;;;0.41;100.00
29461;BME280;16428;47.836;35.106;2023-01-31T00:10:10;100773.28;;;0.29;100.00
29461;BME280;16428;47.836;35.106;2023-01-31T00:12:41;100773.28;;;0.17;100.00
29461;BME280;16428;47.836;35.106;2023-01-31T00:15:11;100768.31;;;0.25;100.00
29461;BME280;16428;47.836;35.106;2023-01-31T00:17:44;100774.63;;;0.35;100.00
29461;BME280;16428;47.836;35.106;2023-01-31T00:20:14;100764.50;;;0.29;100.00
29461;BME280;16428;47.836;35.106;2023-01-31T00:22:44;100756.69;;;0.27;100.00
29461;BME280;16428;47.836;35.106;2023-01-31T00:25:13;100760.25;;;0.39;100.00
29461;BME280;16428;47.836;35.106;2023-01-31T00:27:44;100766.03;;;0.44;100.00
29461;BME280;16428;47.836;35.106;2023-01-31T00:30:14;100763.84;;;0.38;100.00
29461;BME280;16428;47.836;35.106;2023-01-31T00:32:45;100766.75;;;0.46;100.00
29461;BME280;16428;47.836;35.106;2023-01-31T00:35:17;100767.16;;;0.29;100.00
29461;BME280;16428;47.836;35.106;2023-01-31T00:37:48;100765.94;;;0.33;100.00
29461;BME280;16428;47.836;35.106;2023-01-31T00:40:20;100761.47;;;0.46;100.00
29461;BME280;16428;47.836;35.106;2023-01-31T00:42:52;100753.91;;;0.42;100.00
29461;BME280;16428;47.836;35.106;2023-01-31T00:45:23;100743.91;;;0.58;100.00
29461;BME280;16428;47.836;35.106;2023-01-31T00:47:54;100753.63;;;0.57;100.00
29461;BME280;16428;47.836;35.106;2023-01-31T00:50:32;100748.56;;;0.54;100.00
29461;BME280;16428;47.836;35.106;2023-01-31T00:53:05;100751.94;;;0.56;100.00
29461;BME280;16428;47.836;35.106;2023-01-31T00:55:42;100755.16;;;0.36;100.00
29461;BME280;16428;47.836;35.106;2023-01-31T00:58:14;100756.31;;;0.45;100.00
29461;BME280;16428;47.836;35.106;2023-01-31T01:00:49;100751.88;;;0.45;100.00
29461;BME280;16428;47.836;35.106;2023-01-31T01:03:19;100746.59;;;0.45;100.00
29461;BME280;16428;47.836;35.106;2023-01-31T01:05:53;100742.31;;;0.19;100.00
29461;BME280;16428;47.836;35.106;2023-01-31T01:08:24;100744.75;;;0.22;100.00
29461;BME280;16428;47.836;35.106;2023-01-31T01:10:53;100748.03;;;0.25;100.00
29461;BME280;16428;47.836;35.106;2023-01-31T01:13:25;100734.94;;;0.24;100.00
29461;BME280;16428;47.836;35.106;2023-01-31T01:16:09;100729.22;;;0.17;100.00
29461;BME280;16428;47.836;35.106;2023-01-31T01:18:40;100734.34;;;0.31;100.00
29461;BME280;16428;47.836;35.106;2023-01-31T01:21:27;100733.06;;;0.00;100.00
29461;BME280;16428;47.836;35.106;2023-01-31T01:24:00;100729.72;;;-0.02;100.00
29461;BME280;16428;47.836;35.106;2023-01-31T01:26:33;100723.34;;;0.14;100.00
29461;BME280;16428;47.836;35.106;2023-01-31T01:29:04;100728.38;;;0.17;100.00
29461;BME280;16428;47.836;35.106;2023-01-31T01:31:38;100725.50;;;-0.04;100.00
29461;BME280;16428;47.836;35.106;2023-01-31T01:34:19;100729.97;;;-0.17;100.00
29461;BME280;16428;47.836;35.106;2023-01-31T01:36:50;100727.00;;;-0.25;100.00
29461;BME280;16428;47.836;35.106;2023-01-31T01:39:20;100712.34;;;-0.42;100.00
29461;BME280;16428;47.836;35.106;2023-01-31T01:41:51;100708.25;;;-0.46;100.00
29461;BME280;16428;47.836;35.106;2023-01-31T01:50:21;100715.09;;;-0.56;100.00
29461;BME280;16428;47.836;35.106;2023-01-31T01:53:08;100713.41;;;-0.57;100.00
29461;BME280;16428;47.836;35.106;2023-01-31T01:55:54;100702.22;;;-0.48;100.00
29461;BME280;16428;47.836;35.106;2023-01-31T01:58:47;100710.34;;;-0.51;100.00
29461;BME280;16428;47.836;35.106;2023-01-31T02:01:21;100704.44;;;-0.67;100.00
29461;BME280;16428;47.836;35.106;2023-01-31T02:03:53;100696.63;;;-0.56;100.00
29461;BME280;16428;47.836;35.106;2023-01-31T02:06:26;100697.25;;;-0.53;100.00
29461;BME280;16428;47.836;35.106;2023-01-31T02:08:58;100701.03;;;-0.44;100.00
29461;BME280;16428;47.836;35.106;2023-01-31T02:11:29;100695.13;;;-0.60;100.00
29461;BME280;16428;47.836;35.106;2023-01-31T02:14:06;100701.06;;;-0.69;100.00
29461;BME280;16428;47.836;35.106;2023-01-31T02:16:35;100705.50;;;-0.83;100.00
29461;BME280;16428;47.836;35.106;2023-01-31T02:19:24;100703.59;;;-0.68;100.00
29461;BME280;16428;47.836;35.106;2023-01-31T02:34:13;100703.81;;;-0.71;100.00
29461;BME280;16428;47.836;35.106;2023-01-31T07:47:44;100760.00;;;1.25;100.00
29461;BME280;16428;47.836;35.106;2023-01-31T08:26:17;100765.25;;;1.60;100.00
29461;BME280;16428;47.836;35.106;2023-01-31T08:28:51;100766.50;;;1.67;100.00
29461;BME280;16428;47.836;35.106;2023-01-31T08:32:12;100769.72;;;1.70;100.00
29461;BME280;16428;47.836;35.106;2023-01-31T08:35:30;100769.84;;;1.69;100.00
29461;BME280;16428;47.836;35.106;2023-01-31T08:38:49;100766.22;;;1.70;100.00
29461;BME280;16428;47.836;35.106;2023-01-31T08:41:46;100756.63;;;1.91;100.00
29461;BME280;16428;47.836;35.106;2023-01-31T08:44:43;100767.22;;;1.91;100.00
29461;BME280;16428;47.836;35.106;2023-01-31T08:47:44;100755.75;;;2.02;100.00
29461;BME280;16428;47.836;35.106;2023-01-31T08:50:41;100765.16;;;2.06;100.00
29461;BME280;16428;47.836;35.106;2023-01-31T08:53:43;100763.34;;;2.06;100.00
29461;BME280;16428;47.836;35.106;2023-01-31T08:56:41;100757.59;;;1.79;100.00
29461;BME280;16428;47.836;35.106;2023-01-31T08:59:40;100754.91;;;2.01;100.00
29461;BME280;16428;47.836;35.106;2023-01-31T09:02:27;100752.53;;;2.09;100.00
29461;BME280;16428;47.836;35.106;2023-01-31T09:05:24;100746.03;;;1.80;100.00
29461;BME280;16428;47.836;35.106;2023-01-31T09:08:02;100743.25;;;1.82;100.00
29461;BME280;16428;47.836;35.106;2023-01-31T09:10:51;100744.81;;;1.84;100.00
29461;BME280;16428;47.836;35.106;2023-01-31T09:13:49;100751.94;;;1.95;100.00
29461;BME280;16428;47.836;35.106;2023-01-31T09:16:28;100747.84;;;2.13;100.00
29461;BME280;16428;47.836;35.106;2023-01-31T09:19:26;100754.81;;;2.03;100.00
29461;BME280;16428;47.836;35.106;2023-01-31T09:22:00;100751.44;;;2.12;100.00
29461;BME280;16428;47.836;35.106;2023-01-31T09:24:36;100762.03;;;2.23;100.00
29461;BME280;16428;47.836;35.106;2023-01-31T09:27:27;100757.69;;;2.22;100.00
29461;BME280;16428;47.836;35.106;2023-01-31T09:30:01;100755.91;;;2.11;100.00
29461;BME280;16428;47.836;35.106;2023-01-31T09:32:31;100744.59;;;1.98;100.00
29461;BME280;16428;47.836;35.106;2023-01-31T09:35:02;100738.78;;;2.04;100.00
29461;BME280;16428;47.836;35.106;2023-01-31T09:37:38;100748.25;;;2.29;100.00
29461;BME280;16428;47.836;35.106;2023-01-31T09:40:19;100745.88;;;2.15;100.00
29461;BME280;16428;47.836;35.106;2023-01-31T09:42:54;100745.41;;;2.21;100.00
29461;BME280;16428;47.836;35.106;2023-01-31T09:45:29;100758.06;;;2.29;100.00
29461;BME280;16428;47.836;35.106;2023-01-31T09:48:17;100749.16;;;2.07;100.00
29461;BME280;16428;47.836;35.106;2023-01-31T09:50:53;100752.16;;;2.25;100.00
29461;BME280;16428;47.836;35.106;2023-01-31T09:53:29;100747.88;;;2.45;100.00
29461;BME280;16428;47.836;35.106;2023-01-31T10:08:35;100743.69;;;2.42;100.00
29461;BME280;16428;47.836;35.106;2023-01-31T10:11:46;100738.78;;;2.27;100.00
29461;BME280;16428;47.836;35.106;2023-01-31T10:15:12;100737.56;;;2.20;100.00
29461;BME280;16428;47.836;35.106;2023-01-31T10:18:33;100726.25;;;2.29;100.00
29461;BME280;16428;47.836;35.106;2023-01-31T14:12:48;100723.75;;;1.49;100.00
29461;BME280;16428;47.836;35.106;2023-01-31T14:29:47;100724.47;;;1.73;100.00
29461;BME280;16428;47.836;35.106;2023-01-31T14:33:30;100717.13;;;1.66;100.00
29461;BME280;16428;47.836;35.106;2023-01-31T14:40:29;100720.63;;;1.66;100.00
29461;BME280;16428;47.836;35.106;2023-01-31T14:57:33;100726.03;;;1.65;100.00
29461;BME280;16428;47.836;35.106;2023-01-31T15:03:55;100728.69;;;1.76;100.00
29461;BME280;16428;47.836;35.106;2023-01-31T15:06:33;100725.31;;;1.63;100.00
29461;BME280;16428;47.836;35.106;2023-01-31T15:11:54;100728.81;;;1.74;100.00
29461;BME280;16428;47.836;35.106;2023-01-31T15:17:27;100739.28;;;1.65;100.00
29461;BME280;16428;47.836;35.106;2023-01-31T15:20:17;100726.88;;;1.65;100.00
29461;BME280;16428;47.836;35.106;2023-01-31T15:22:49;100736.53;;;1.66;100.00
29461;BME280;16428;47.836;35.106;2023-01-31T15:25:34;100740.72;;;1.58;100.00
29461;BME280;16428;47.836;35.106;2023-01-31T15:28:15;100737.59;;;1.64;100.00
29461;BME280;16428;47.836;35.106;2023-01-31T15:30:46;100745.75;;;1.50;100.00
29461;BME280;16428;47.836;35.106;2023-01-31T15:33:22;100746.94;;;1.46;100.00
29461;BME280;16428;47.836;35.106;2023-01-31T15:38:51;100739.84;;;1.35;100.00
29461;BME280;16428;47.836;35.106;2023-01-31T15:41:39;100739.59;;;1.38;100.00
29461;BME280;16428;47.836;35.106;2023-01-31T15:46:51;100740.19;;;1.41;100.00
29461;BME280;16428;47.836;35.106;2023-01-31T15:49:31;100743.34;;;1.47;100.00
29461;BME280;16428;47.836;35.106;2023-01-31T15:52:13;100747.66;;;1.36;100.00
29461;BME280;16428;47.836;35.106;2023-01-31T15:55:02;100739.69;;;1.25;100.00
29461;BME280;16428;47.836;35.106;2023-01-31T15:57:57;100743.69;;;1.31;100.00
29461;BME280;16428;47.836;35.106;2023-01-31T16:00:36;100743.28;;;1.24;100.00
29461;BME280;16428;47.836;35.106;2023-01-31T16:03:06;100735.22;;;1.26;100.00
29461;BME280;16428;47.836;35.106;2023-01-31T16:05:48;100736.78;;;1.17;100.00
29461;BME280;16428;47.836;35.106;2023-01-31T16:08:35;100736.44;;;1.22;100.00
29461;BME280;16428;47.836;35.106;2023-01-31T16:11:06;100728.88;;;1.28;100.00
29461;BME280;16428;47.836;35.106;2023-01-31T16:13:40;100734.88;;;1.19;100.00
29461;BME280;16428;47.836;35.106;2023-01-31T16:16:11;100732.97;;;1.21;100.00
29461;BME280;16428;47.836;35.106;2023-01-31T16:18:48;100731.75;;;1.25;100.00
29461;BME280;16428;47.836;35.106;2023-01-31T16:21:25;100740.31;;;1.40;100.00
29461;BME280;16428;47.836;35.106;2023-01-31T16:24:15;100734.69;;;1.45;100.00
29461;BME280;16428;47.836;35.106;2023-01-31T16:27:13;100739.13;;;1.44;100.00
29461;BME280;16428;47.836;35.106;2023-01-31T16:29:56;100754.06;;;1.45;100.00
29461;BME280;16428;47.836;35.106;2023-01-31T16:32:29;100752.03;;;1.49;100.00
29461;BME280;16428;47.836;35.106;2023-01-31T16:35:07;100750.31;;;1.48;100.00
29461;BME280;16428;47.836;35.106;2023-01-31T17:22:12;100732.69;;;1.13;100.00
29461;BME280;16428;47.836;35.106;2023-01-31T17:24:44;100734.28;;;1.27;100.00
29461;BME280;16428;47.836;35.106;2023-01-31T17:27:18;100734.41;;;1.25;100.00
29461;BME280;16428;47.836;35.106;2023-01-31T17:29:48;100734.28;;;1.27;100.00
29461;BME280;16428;47.836;35.106;2023-01-31T17:32:20;100739.69;;;1.25;100.00
29461;BME280;16428;47.836;35.106;2023-01-31T17:34:50;100736.06;;;1.26;100.00
29461;BME280;16428;47.836;35.106;2023-01-31T17:37:20;100739.47;;;1.28;100.00
29461;BME280;16428;47.836;35.106;2023-01-31T17:39:59;100730.16;;;1.23;100.00
29461;BME280;16428;47.836;35.106;2023-01-31T17:42:37;100731.00;;;1.23;100.00
29461;BME280;16428;47.836;35.106;2023-01-31T17:45:11;100736.81;;;1.28;100.00
29461;BME280;16428;47.836;35.106;2023-01-31T17:47:40;100742.56;;;1.22;100.00
29461;BME280;16428;47.836;35.106;2023-01-31T17:50:22;100741.38;;;1.26;100.00
29461;BME280;16428;47.836;35.106;2023-01-31T17:52:54;100734.91;;;1.30;100.00
29461;BME280;16428;47.836;35.106;2023-01-31T17:55:22;100746.66;;;1.26;100.00
29461;BME280;16428;47.836;35.106;2023-01-31T17:57:53;100740.06;;;1.32;100.00
29461;BME280;16428;47.836;35.106;2023-01-31T18:00:23;100748.25;;;1.29;100.00
29461;BME280;16428;47.836;35.106;2023-01-31T18:02:56;100741.41;;;1.37;100.00
29461;BME280;16428;47.836;35.106;2023-01-31T18:05:25;100740.81;;;1.34;100.00
29461;BME280;16428;47.836;35.106;2023-01-31T18:08:07;100737.16;;;1.24;100.00
29461;BME280;16428;47.836;35.106;2023-01-31T18:10:38;100735.13;;;1.38;100.00
29461;BME280;16428;47.836;35.106;2023-01-31T18:13:11;100739.88;;;1.57;100.00
29461;BME280;16428;47.836;35.106;2023-01-31T18:15:42;100738.50;;;1.40;100.00
29461;BME280;16428;47.836;35.106;2023-01-31T18:18:20;100739.34;;;1.41;100.00
29461;BME280;16428;47.836;35.106;2023-01-31T18:24:21;100737.09;;;1.36;100.00
29461;BME280;16428;47.836;35.106;2023-01-31T20:19:30;100716.25;;;1.43;100.00
29461;BME280;16428;47.836;35.106;2023-01-31T20:38:41;100714.19;;;1.24;100.00
29461;BME280;16428;47.836;35.106;2023-01-31T20:41:59;100716.38;;;1.30;100.00
29461;BME280;16428;47.836;35.106;2023-01-31T20:45:10;100712.03;;;1.18;100.00
29461;BME280;16428;47.836;35.106;2023-01-31T20:48:41;100709.81;;;1.12;100.00
29461;BME280;16428;47.836;35.106;2023-01-31T20:51:43;100715.63;;;1.17;100.00
29461;BME280;16428;47.836;35.106;2023-01-31T20:54:41;100710.34;;;1.17;100.00
29461;BME280;16428;47.836;35.106;2023-01-31T20:57:50;100715.13;;;1.23;100.00
29461;BME280;16428;47.836;35.106;2023-01-31T21:01:10;100715.13;;;1.23;100.00
29461;BME280;16428;47.836;35.106;2023-01-31T21:04:07;100712.16;;;1.28;100.00
29461;BME280;16428;47.836;35.106;2023-01-31T21:16:27;100714.91;;;1.26;100.00
29461;BME280;16428;47.836;35.106;2023-01-31T21:19:26;100715.19;;;1.34;100.00
29461;BME280;16428;47.836;35.106;2023-01-31T21:22:54;100715.53;;;1.30;100.00
29461;BME280;16428;47.836;35.106;2023-01-31T21:26:19;100730.34;;;1.32;100.00
29461;BME280;16428;47.836;35.106;2023-01-31T21:29:57;100722.84;;;1.26;100.00
29461;BME280;16428;47.836;35.106;2023-01-31T21:33:22;100716.13;;;1.33;100.00
29461;BME280;16428;47.836;35.106;2023-01-31T21:36:17;100710.63;;;1.36;100.00
29461;BME280;16428;47.836;35.106;2023-01-31T21:39:14;100714.94;;;1.37;100.00
29461;BME280;16428;47.836;35.106;2023-01-31T21:42:09;100715.06;;;1.58;100.00
29461;BME280;16428;47.836;35.106;2023-01-31T21:45:10;100711.81;;;1.55;100.00
29461;BME280;16428;47.836;35.106;2023-01-31T21:48:08;100716.66;;;1.61;100.00
29461;BME280;16428;47.836;35.106;2023-01-31T21:51:23;100709.94;;;1.68;100.00
29461;BME280;16428;47.836;35.106;2023-01-31T21:54:26;100707.25;;;1.34;100.00
29461;BME280;16428;47.836;35.106;2023-01-31T21:57:16;100717.59;;;1.60;100.00
29461;BME280;16428;47.836;35.106;2023-01-31T22:00:15;100712.31;;;1.49;100.00
29461;BME280;16428;47.836;35.106;2023-01-31T22:03:05;100706.63;;;1.31;100.00
29461;BME280;16428;47.836;35.106;2023-01-31T22:05:48;100708.94;;;1.35;100.00
29461;BME280;16428;47.836;35.106;2023-01-31T22:08:28;100708.31;;;1.21;100.00
29461;BME280;16428;47.836;35.106;2023-01-31T22:11:20;100709.94;;;1.11;100.00
29461;BME280;16428;47.836;35.106;2023-01-31T22:14:17;100711.00;;;0.97;100.00
29461;BME280;16428;47.836;35.106;2023-01-31T22:17:01;100712.47;;;1.12;100.00
